Time;durP1;ratioP1;P1;durP2;ratioP2;P2;SDS_P1;SDS_P2;PMS_P1;PMS_P2;Temp;Humidity;BMP_temperature;BMP_pressure;BME280_temperature;BME280_humidity;BME280_pressure;Samples;Min_cycle;Max_cycle;Signal;HPM_P1;HPM_P2
2023/10/30 00:00:36;;;;;;;7.93;2.38;;;;;;;10.49;100.00;91986.63;2103930;28;20099;-82
2023/10/30 00:01:37;;;;;;;6.85;2.33;;;;;;;10.48;100.00;91987.78;2107334;28;20016;-80
2023/10/30 00:02:39;;;;;;;3.85;1.90;;;;;;;10.36;100.00;92004.69;2097016;28;20089;-80
2023/10/30 00:03:40;;;;;;;4.45;2.20;;;;;;;10.36;100.00;91995.91;2096890;28;20074;-80
2023/10/30 00:04:41;;;;;;;3.40;2.22;;;;;;;10.47;100.00;92004.28;2106421;28;20032;-80
2023/10/30 00:05:42;;;;;;;3.25;1.75;;;;;;;10.58;100.00;92001.94;2098028;28;20032;-81
2023/10/30 00:06:43;;;;;;;3.42;1.95;;;;;;;10.61;100.00;92001.03;2118558;27;20106;-81
2023/10/30 00:07:44;;;;;;;4.20;1.83;;;;;;;10.49;100.00;92007.25;2106639;28;20066;-80
2023/10/30 00:08:45;;;;;;;4.07;2.10;;;;;;;10.52;100.00;92001.75;2096184;28;20067;-81
2023/10/30 00:09:46;;;;;;;2.58;1.90;;;;;;;10.51;100.00;92004.88;2098191;28;20519;-81
2023/10/30 00:10:47;;;;;;;3.03;2.25;;;;;;;10.42;100.00;92002.94;2106491;28;20016;-81
2023/10/30 00:11:49;;;;;;;5.38;2.30;;;;;;;10.35;100.00;91997.84;2096454;28;20020;-81
2023/10/30 00:12:50;;;;;;;2.97;2.00;;;;;;;10.41;100.00;92009.47;2097130;28;20047;-81
2023/10/30 00:13:51;;;;;;;3.35;1.85;;;;;;;10.19;100.00;92006.84;2104392;28;20035;-82
2023/10/30 00:14:52;;;;;;;2.20;1.63;;;;;;;10.23;100.00;91998.69;2097788;28;20394;-80
2023/10/30 00:15:54;;;;;;;4.68;2.05;;;;;;;10.31;100.00;92008.66;2098228;28;20468;-81
2023/10/30 00:16:55;;;;;;;8.38;2.10;;;;;;;10.28;100.00;91998.88;2096173;28;20021;-82
2023/10/30 00:17:56;;;;;;;2.10;1.83;;;;;;;10.34;100.00;92007.81;2096101;28;20016;-80
2023/10/30 00:19:02;;;;;;;5.32;1.83;;;;;;;10.43;100.00;92003.66;2089870;28;20359;-81
2023/10/30 00:20:04;;;;;;;3.97;1.90;;;;;;;10.21;100.00;92012.47;2097717;28;20027;-81
2023/10/30 00:21:05;;;;;;;4.47;1.98;;;;;;;10.25;100.00;92007.78;2088845;28;20020;-81
2023/10/30 00:22:10;;;;;;;4.43;2.28;;;;;;;10.24;100.00;92000.94;2097531;28;20017;-81
2023/10/30 00:23:11;;;;;;;2.92;2.15;;;;;;;10.11;100.00;92013.63;2096306;28;20470;-82
2023/10/30 00:24:13;;;;;;;7.70;2.10;;;;;;;10.11;100.00;92010.22;2093462;28;20044;-80
2023/10/30 00:25:15;;;;;;;2.88;1.90;;;;;;;9.97;100.00;92006.16;2095604;28;20025;-82
2023/10/30 00:26:16;;;;;;;2.40;2.00;;;;;;;9.93;100.00;92000.22;2013528;28;20032;-81
2023/10/30 00:27:17;;;;;;;2.80;2.10;;;;;;;10.04;100.00;92003.94;2002003;28;21709;-81
2023/10/30 00:28:18;;;;;;;4.53;1.92;;;;;;;10.12;100.00;92003.69;2029414;28;20087;-80
2023/10/30 00:29:19;;;;;;;3.47;2.13;;;;;;;10.09;100.00;92013.31;2033891;28;20050;-82
2023/10/30 00:30:20;;;;;;;2.90;1.98;;;;;;;10.09;100.00;92007.97;2034345;28;20055;-81
2023/10/30 00:31:22;;;;;;;2.45;2.00;;;;;;;9.99;100.00;92015.22;2021400;28;20489;-81
2023/10/30 00:32:23;;;;;;;3.03;2.03;;;;;;;10.11;100.00;92012.91;2048386;28;20103;-80
2023/10/30 00:33:24;;;;;;;5.25;1.85;;;;;;;10.05;100.00;92010.81;2054230;28;20037;-80
2023/10/30 00:34:25;;;;;;;5.03;1.92;;;;;;;9.90;100.00;92014.44;2059276;28;20164;-81
2023/10/30 00:35:26;;;;;;;3.63;1.70;;;;;;;9.96;100.00;92016.06;2066408;28;20028;-80
2023/10/30 00:36:27;;;;;;;3.42;1.80;;;;;;;9.80;100.00;92022.38;2069832;28;20111;-80
2023/10/30 00:37:28;;;;;;;3.17;2.10;;;;;;;9.94;100.00;92012.38;2074693;28;20540;-80
2023/10/30 00:38:29;;;;;;;3.83;1.88;;;;;;;9.99;100.00;92017.13;2085166;28;20036;-81
2023/10/30 00:39:32;;;;;;;3.55;2.15;;;;;;;9.99;100.00;92017.13;2087580;28;20045;-81
2023/10/30 00:40:33;;;;;;;4.00;1.98;;;;;;;9.95;100.00;92014.59;2105571;28;20149;-81
2023/10/30 00:41:34;;;;;;;5.05;2.25;;;;;;;9.78;100.00;92018.66;2106083;28;20495;-81
2023/10/30 00:42:35;;;;;;;2.25;1.80;;;;;;;9.86;100.00;92011.16;2110789;27;20720;-81
2023/10/30 00:43:36;;;;;;;4.70;2.20;;;;;;;9.87;100.00;92010.69;2117260;27;20018;-80
2023/10/30 00:44:39;;;;;;;6.15;2.35;;;;;;;9.79;100.00;92015.56;2097841;28;20013;-80
2023/10/30 00:45:40;;;;;;;5.85;2.40;;;;;;;9.79;100.00;92022.84;2098846;28;20040;-81
2023/10/30 00:46:41;;;;;;;5.10;1.90;;;;;;;9.81;100.00;92015.88;2095115;28;20110;-81
2023/10/30 00:47:42;;;;;;;4.13;2.17;;;;;;;9.89;100.00;92021.69;2092988;28;20067;-81
2023/10/30 00:48:43;;;;;;;6.40;2.05;;;;;;;9.77;100.00;92017.19;2094814;28;20024;-80
2023/10/30 00:49:44;;;;;;;3.28;1.80;;;;;;;9.76;100.00;92021.03;2098395;28;20016;-81
2023/10/30 00:50:45;;;;;;;4.43;1.95;;;;;;;9.84;100.00;92019.59;2108218;28;20019;-81
2023/10/30 00:51:46;;;;;;;2.45;2.00;;;;;;;9.71;100.00;92022.34;2098064;28;20090;-80
2023/10/30 00:52:47;;;;;;;4.30;2.10;;;;;;;9.66;100.00;92027.47;2099268;28;20021;-81
2023/10/30 00:53:48;;;;;;;2.55;1.80;;;;;;;9.64;100.00;92030.59;2098796;28;20909;-80
2023/10/30 00:54:49;;;;;;;6.00;1.90;;;;;;;9.61;100.00;92022.72;2097032;28;20020;-81
2023/10/30 00:55:50;;;;;;;3.05;1.92;;;;;;;9.65;100.00;92031.34;2099125;28;20028;-80
2023/10/30 00:56:51;;;;;;;3.58;2.20;;;;;;;9.66;100.00;92028.25;2089729;28;20111;-81
2023/10/30 00:57:52;;;;;;;2.53;1.90;;;;;;;9.47;100.00;92024.72;2092408;28;20017;-81
2023/10/30 00:58:53;;;;;;;3.67;2.38;;;;;;;9.49;100.00;92035.69;2089267;28;20024;-81
2023/10/30 00:59:54;;;;;;;2.08;1.75;;;;;;;9.47;100.00;92031.97;2087466;28;20044;-80
2023/10/30 01:00:55;;;;;;;5.28;1.80;;;;;;;9.45;100.00;92037.00;2091536;28;20461;-81
2023/10/30 01:01:56;;;;;;;3.53;1.85;;;;;;;9.39;100.00;92036.06;2096185;28;20016;-80
2023/10/30 01:02:57;;;;;;;3.40;2.10;;;;;;;9.31;100.00;92025.66;2116761;27;20047;-81
2023/10/30 01:03:58;;;;;;;1.98;1.67;;;;;;;9.10;100.00;92021.06;2107874;28;20054;-81
2023/10/30 01:04:59;;;;;;;3.95;1.90;;;;;;;9.16;100.00;92024.63;2103146;28;20016;-81
2023/10/30 01:06:01;;;;;;;3.13;1.70;;;;;;;9.17;100.00;92025.38;2067106;28;20090;-81
2023/10/30 01:07:02;;;;;;;2.72;1.98;;;;;;;9.03;100.00;92027.34;2007673;28;20033;-80
2023/10/30 01:08:08;;;;;;;3.05;1.80;;;;;;;9.02;100.00;92023.19;2019189;28;20025;-80
2023/10/30 01:09:09;;;;;;;3.22;1.80;;;;;;;8.90;100.00;92026.66;2026258;28;20079;-81
2023/10/30 01:10:10;;;;;;;2.95;2.00;;;;;;;8.74;100.00;92030.22;2038078;28;20078;-81
2023/10/30 01:11:14;;;;;;;2.00;1.45;;;;;;;8.78;100.00;92022.88;2046028;28;20567;-81
2023/10/30 01:12:15;;;;;;;3.92;1.75;;;;;;;8.69;100.00;92030.00;2043784;28;20150;-81
2023/10/30 01:13:16;;;;;;;4.28;1.80;;;;;;;8.76;100.00;92032.44;2071872;28;20067;-80
2023/10/30 01:14:17;;;;;;;2.03;1.83;;;;;;;8.81;100.00;92029.22;2080244;28;20091;-80
2023/10/30 01:15:18;;;;;;;2.72;1.50;;;;;;;8.66;100.00;92028.22;2076244;28;22919;-80
2023/10/30 01:16:19;;;;;;;1.92;1.70;;;;;;;8.58;100.00;92028.44;2082183;28;20020;-82
2023/10/30 01:17:20;;;;;;;5.60;1.83;;;;;;;8.58;100.00;92030.34;2093746;28;20044;-80
2023/10/30 01:18:21;;;;;;;4.43;1.75;;;;;;;8.57;100.00;92024.28;2090291;28;20021;-81
2023/10/30 01:19:22;;;;;;;3.42;1.70;;;;;;;8.53;100.00;92031.66;2090793;28;20094;-80
2023/10/30 01:20:23;;;;;;;2.67;1.77;;;;;;;8.53;100.00;92031.66;2096272;28;20032;-81
2023/10/30 01:21:24;;;;;;;2.85;1.98;;;;;;;8.59;100.00;92031.84;2112346;28;20058;-81
2023/10/30 01:22:25;;;;;;;3.58;1.73;;;;;;;8.58;100.00;92039.09;2106007;28;20028;-81
2023/10/30 01:23:26;;;;;;;3.30;1.70;;;;;;;8.55;100.00;92036.53;2096867;28;20028;-81
2023/10/30 01:24:27;;;;;;;3.53;1.92;;;;;;;8.54;100.00;92035.06;2112861;28;20096;-80
2023/10/30 01:25:28;;;;;;;3.50;1.90;;;;;;;8.51;100.00;92035.91;2105984;28;20020;-81
2023/10/30 01:26:29;;;;;;;2.15;1.50;;;;;;;8.56;100.00;92038.03;2089508;28;20017;-82
2023/10/30 01:27:30;;;;;;;2.60;1.85;;;;;;;8.53;100.00;92039.63;2089347;28;20151;-81
2023/10/30 01:28:31;;;;;;;1.85;1.42;;;;;;;8.54;100.00;92035.78;2094899;28;20020;-81
2023/10/30 01:29:32;;;;;;;2.47;1.70;;;;;;;8.50;100.00;92037.81;2096002;28;20020;-81
2023/10/30 01:30:33;;;;;;;3.17;1.80;;;;;;;8.40;100.00;92038.91;2094174;28;20063;-81
2023/10/30 01:31:41;;;;;;;5.47;1.67;;;;;;;8.28;100.00;92037.72;2097555;28;20020;-81
2023/10/30 01:32:42;;;;;;;1.92;1.80;;;;;;;8.22;100.00;92034.09;2089474;28;20414;-80
2023/10/30 01:33:43;;;;;;;4.75;1.70;;;;;;;8.36;100.00;92030.25;2107926;28;20019;-82
2023/10/30 01:34:44;;;;;;;4.78;1.77;;;;;;;8.35;100.00;92030.69;2102977;28;20039;-81
2023/10/30 01:35:45;;;;;;;6.28;1.85;;;;;;;8.30;100.00;92029.31;2095601;28;20144;-80
2023/10/30 01:36:46;;;;;;;2.55;1.55;;;;;;;8.37;100.00;92025.69;2104353;28;20016;-81
2023/10/30 01:37:47;;;;;;;3.58;2.05;;;;;;;8.23;100.00;92032.91;2037652;28;20031;-81
2023/10/30 01:38:48;;;;;;;3.55;1.80;;;;;;;8.24;100.00;92039.00;2008731;28;20686;-81
2023/10/30 01:39:49;;;;;;;1.80;1.40;;;;;;;8.23;100.00;92034.84;2026867;28;20028;-81
2023/10/30 01:40:51;;;;;;;1.90;1.70;;;;;;;8.29;100.00;92036.53;2033488;28;20048;-81
2023/10/30 01:41:52;;;;;;;1.92;1.55;;;;;;;8.30;100.00;92026.66;2032528;28;20047;-81
2023/10/30 01:42:53;;;;;;;2.67;1.63;;;;;;;8.25;100.00;92029.81;2038776;28;20032;-81
2023/10/30 01:43:54;;;;;;;2.63;1.50;;;;;;;8.26;100.00;92028.66;2048889;28;20036;-80
2023/10/30 01:44:57;;;;;;;4.93;2.38;;;;;;;8.27;100.00;92028.25;2066792;28;20717;-81
2023/10/30 01:45:59;;;;;;;5.15;1.80;;;;;;;8.23;100.00;92034.84;2064485;28;20028;-80
2023/10/30 01:47:00;;;;;;;3.85;1.80;;;;;;;8.20;100.00;92027.69;2076594;28;20020;-81
2023/10/30 01:48:01;;;;;;;3.13;1.63;;;;;;;8.06;100.00;92026.22;2087740;28;20017;-80
2023/10/30 01:49:02;;;;;;;3.60;2.10;;;;;;;7.96;100.00;92028.03;2087930;28;20020;-81
2023/10/30 01:50:06;;;;;;;5.25;1.70;;;;;;;8.04;100.00;92028.56;2097541;28;20055;-79
2023/10/30 01:51:08;;;;;;;2.53;1.85;;;;;;;8.14;100.00;92034.75;2095794;28;20044;-81
2023/10/30 01:52:09;;;;;;;2.88;1.70;;;;;;;8.11;100.00;92036.31;2097633;28;20020;-81
2023/10/30 01:53:10;;;;;;;4.25;1.60;;;;;;;8.10;100.00;92031.44;2105845;28;20126;-81
2023/10/30 01:54:11;;;;;;;2.08;1.70;;;;;;;8.05;100.00;92032.72;2095351;28;20021;-80
2023/10/30 01:55:13;;;;;;;4.53;1.75;;;;;;;7.99;100.00;92035.16;2097431;28;20036;-81
2023/10/30 01:56:15;;;;;;;3.15;1.63;;;;;;;7.91;100.00;92035.81;2087336;28;20106;-81
2023/10/30 01:57:20;;;;;;;3.33;2.03;;;;;;;7.93;100.00;92038.78;2087305;28;20087;-81
2023/10/30 01:58:22;;;;;;;3.70;1.58;;;;;;;7.91;100.00;92039.22;2090276;28;20021;-80
2023/10/30 01:59:23;;;;;;;2.70;1.60;;;;;;;7.95;100.00;92036.44;2097481;28;20404;-80
2023/10/30 02:00:24;;;;;;;12.23;2.50;;;;;;;7.99;100.00;92037.06;2097499;28;20067;-81
2023/10/30 02:01:26;;;;;;;3.70;1.60;;;;;;;7.93;100.00;92039.50;2100407;28;20031;-80
2023/10/30 02:02:30;;;;;;;2.38;1.60;;;;;;;7.96;100.00;92040.59;2093927;28;20484;-80
2023/10/30 02:03:31;;;;;;;1.77;1.63;;;;;;;8.08;100.00;92029.22;2069791;28;20508;-81
2023/10/30 02:04:32;;;;;;;4.15;2.25;;;;;;;8.02;100.00;92030.91;2016290;28;20147;-81
2023/10/30 02:05:33;;;;;;;6.10;1.98;;;;;;;8.07;100.00;92031.09;2025875;28;21289;-80
2023/10/30 02:06:34;;;;;;;3.75;2.10;;;;;;;8.17;100.00;92041.88;2037656;28;20029;-79
2023/10/30 02:07:36;;;;;;;3.28;1.80;;;;;;;8.04;100.00;92031.22;2049590;28;20071;-81
2023/10/30 02:08:40;;;;;;;4.10;1.83;;;;;;;8.17;100.00;92036.56;2057168;28;20050;-81
2023/10/30 02:09:41;;;;;;;2.97;2.00;;;;;;;8.13;100.00;92028.69;2058493;28;20020;-80
2023/10/30 02:10:42;;;;;;;4.97;1.65;;;;;;;8.13;100.00;92030.59;2070793;28;20027;-80
2023/10/30 02:11:43;;;;;;;5.03;2.17;;;;;;;8.12;100.00;92021.09;2081548;28;20024;-81
2023/10/30 02:12:49;;;;;;;2.83;2.10;;;;;;;8.18;100.00;92027.41;2088881;28;20025;-81
2023/10/30 02:13:58;;;;;;;3.58;1.88;;;;;;;8.14;100.00;92027.50;2097097;28;20020;-81
2023/10/30 02:14:59;;;;;;;2.45;1.80;;;;;;;8.02;100.00;92020.25;2097683;28;20457;-79
2023/10/30 02:16:00;;;;;;;2.67;1.80;;;;;;;8.06;100.00;92018.97;2105539;28;20048;-80
2023/10/30 02:17:01;;;;;;;1.92;1.67;;;;;;;8.09;100.00;92022.72;2095418;28;20031;-81
2023/10/30 02:18:03;;;;;;;3.78;2.00;;;;;;;8.18;100.00;92016.75;2115667;27;20023;-81
2023/10/30 02:19:11;;;;;;;2.95;1.63;;;;;;;8.20;100.00;92009.06;2111437;28;20028;-80
2023/10/30 02:20:12;;;;;;;2.72;1.90;;;;;;;8.21;100.00;92015.88;2101449;28;20028;-80
2023/10/30 02:21:13;;;;;;;1.92;1.65;;;;;;;8.17;100.00;92007.28;2104577;28;20027;-81
2023/10/30 02:23:54;;;;;;;;;;;;;;;7.23;100.00;92009.19;2065023;27;20129;-82
2023/10/30 02:24:55;;;;;;;3.35;1.98;;;;;;;7.31;100.00;92004.41;2069935;27;19919;-83
2023/10/30 02:25:56;;;;;;;2.10;1.80;;;;;;;7.31;100.00;92015.78;2059520;28;20061;-82
2023/10/30 02:26:57;;;;;;;3.00;1.80;;;;;;;7.31;100.00;92017.72;2069443;28;20023;-83
2023/10/30 02:27:58;;;;;;;4.07;2.10;;;;;;;7.29;100.00;92028.78;2076710;28;20465;-81
2023/10/30 02:29:01;;;;;;;2.58;1.80;;;;;;;7.29;100.00;92023.47;2081721;28;20023;-81
2023/10/30 02:30:02;;;;;;;3.78;1.83;;;;;;;7.24;100.00;92026.63;2093757;28;20027;-81
2023/10/30 02:31:03;;;;;;;3.28;1.80;;;;;;;7.26;100.00;92023.56;2094055;28;20067;-80
2023/10/30 02:32:04;;;;;;;2.20;1.90;;;;;;;7.25;100.00;92022.81;2119548;27;20015;-81
2023/10/30 02:33:05;;;;;;;6.18;2.10;;;;;;;7.23;100.00;92022.47;2129609;27;20020;-82
2023/10/30 02:34:06;;;;;;;4.53;2.00;;;;;;;7.26;100.00;92018.97;2113022;28;20440;-81
2023/10/30 02:35:18;;;;;;;2.65;1.63;;;;;;;7.36;100.00;92021.75;2104318;28;20028;-82
2023/10/30 02:36:19;;;;;;;5.70;1.83;;;;;;;7.38;100.00;92022.09;2102974;28;20027;-81
2023/10/30 02:37:20;;;;;;;3.67;1.88;;;;;;;7.45;100.00;92029.88;2103366;28;20393;-80
2023/10/30 02:38:21;;;;;;;1.75;1.50;;;;;;;7.50;100.00;92032.00;2112953;28;20851;-81
2023/10/30 02:39:22;;;;;;;3.63;1.98;;;;;;;7.51;100.00;92028.94;2108069;28;20048;-82
2023/10/30 02:40:23;;;;;;;1.60;1.50;;;;;;;7.57;100.00;92024.56;2121438;27;20049;-81
2023/10/30 02:41:29;;;;;;;8.05;2.47;;;;;;;7.63;100.00;92024.78;2119621;27;20025;-80
2023/10/30 02:42:29;;;;;;;3.10;2.03;;;;;;;7.70;100.00;92023.84;2121429;28;20027;-81
2023/10/30 02:43:31;;;;;;;5.25;1.98;;;;;;;7.68;100.00;92023.53;2116360;28;20026;-82
2023/10/30 02:44:32;;;;;;;2.33;1.73;;;;;;;7.76;100.00;92024.81;2102403;28;20027;-80
2023/10/30 02:45:32;;;;;;;3.90;2.65;;;;;;;7.78;100.00;92017.16;2108486;27;20051;-82
2023/10/30 02:46:33;;;;;;;3.17;2.33;;;;;;;7.72;100.00;92019.59;2113051;28;20385;-80
2023/10/30 02:47:35;;;;;;;9.65;2.63;;;;;;;7.70;100.00;92024.59;2112194;28;20472;-82
2023/10/30 02:48:36;;;;;;;8.40;2.97;;;;;;;7.86;100.00;92021.13;2112934;28;20023;-81
2023/10/30 02:49:38;;;;;;;3.88;3.20;;;;;;;8.01;100.00;92018.78;2109660;28;20305;-82
2023/10/30 02:50:42;;;;;;;4.15;3.72;;;;;;;8.13;100.00;92028.69;2102844;28;20029;-81
2023/10/30 02:51:56;;;;;;;4.18;3.60;;;;;;;8.17;100.00;92017.94;2103787;28;20361;-81
2023/10/30 02:52:57;;;;;;;5.38;3.58;;;;;;;8.18;100.00;92014.09;2099065;28;20021;-81
2023/10/30 02:54:01;;;;;;;5.80;3.10;;;;;;;8.19;100.00;92007.59;2112870;28;20016;-82
2023/10/30 02:55:03;;;;;;;4.85;4.07;;;;;;;8.20;100.00;92006.41;2120311;28;20023;-81
2023/10/30 02:56:04;;;;;;;6.28;3.72;;;;;;;8.18;100.00;91998.84;2103532;28;20024;-81
2023/10/30 02:57:05;;;;;;;10.10;4.28;;;;;;;8.18;100.00;92004.19;2111534;28;20388;-81
2023/10/30 03:00:05;;;;;;;6.57;4.72;;;;;;;8.45;100.00;92000.34;2114504;28;20547;-82
2023/10/30 03:01:06;;;;;;;6.88;5.13;;;;;;;8.48;100.00;92005.56;2106085;28;20393;-80
2023/10/30 03:02:07;;;;;;;12.75;5.45;;;;;;;8.50;100.00;92003.19;2096008;28;20074;-82
2023/10/30 03:03:09;;;;;;;7.57;5.20;;;;;;;8.46;100.00;91993.84;2104211;28;20081;-81
2023/10/30 03:04:13;;;;;;;9.27;5.82;;;;;;;8.53;100.00;91994.34;2103678;28;20024;-82
2023/10/30 03:05:13;;;;;;;7.60;5.65;;;;;;;8.60;100.00;91997.97;2109833;28;20023;-81
2023/10/30 03:06:14;;;;;;;7.10;5.60;;;;;;;8.65;100.00;91992.09;2106336;28;20028;-82
2023/10/30 03:07:16;;;;;;;15.38;6.25;;;;;;;8.65;100.00;91990.19;2118695;28;20019;-81
2023/10/30 03:08:17;;;;;;;9.30;5.80;;;;;;;8.70;100.00;91989.63;2108418;28;20027;-81
2023/10/30 03:09:18;;;;;;;11.15;5.88;;;;;;;8.66;100.00;91990.94;2102320;28;20095;-82
2023/10/30 03:10:19;;;;;;;9.18;6.13;;;;;;;8.57;100.00;91992.31;2119300;28;20111;-81
2023/10/30 03:11:22;;;;;;;8.77;5.90;;;;;;;8.65;100.00;91986.75;2104362;28;20020;-81
2023/10/30 03:12:23;;;;;;;9.45;6.10;;;;;;;8.62;100.00;91992.97;2093528;28;20557;-81
2023/10/30 03:13:24;;;;;;;12.38;6.57;;;;;;;8.66;100.00;91993.59;2108113;27;20016;-82
2023/10/30 03:14:25;;;;;;;13.63;6.63;;;;;;;8.75;100.00;91993.66;2110983;28;20020;-80
2023/10/30 03:15:26;;;;;;;16.30;6.80;;;;;;;8.75;100.00;92001.66;2107373;28;20065;-81
2023/10/30 03:16:27;;;;;;;10.18;6.70;;;;;;;8.78;100.00;92009.53;2124407;27;20019;-82
2023/10/30 03:17:28;;;;;;;9.40;6.28;;;;;;;8.72;100.00;92000.59;2110547;28;20016;-82
2023/10/30 03:18:30;;;;;;;9.18;6.43;;;;;;;8.69;100.00;91998.03;2103071;28;20695;-81
2023/10/30 03:19:32;;;;;;;16.70;6.63;;;;;;;8.69;100.00;91998.81;2104413;28;20055;-80
2023/10/30 03:20:33;;;;;;;16.20;6.70;;;;;;;8.69;100.00;92004.13;2096110;28;20385;-81
2023/10/30 03:21:34;;;;;;;11.35;6.28;;;;;;;8.77;100.00;92002.69;2102450;28;20020;-81
2023/10/30 03:22:35;;;;;;;11.57;6.93;;;;;;;8.85;100.00;92005.88;2112414;28;20011;-81
2023/10/30 03:23:36;;;;;;;14.82;7.30;;;;;;;8.81;100.00;92008.66;2100934;28;20101;-81
2023/10/30 03:24:37;;;;;;;12.18;7.72;;;;;;;8.80;100.00;91999.19;2102530;28;20025;-80
2023/10/30 03:25:38;;;;;;;14.23;6.43;;;;;;;8.83;100.00;92006.31;2089895;28;20064;-79
2023/10/30 03:26:39;;;;;;;9.93;6.82;;;;;;;8.91;100.00;92006.06;2102810;28;20028;-82
2023/10/30 03:27:40;;;;;;;21.50;6.97;;;;;;;8.87;100.00;92000.88;2104138;28;20071;-81
2023/10/30 03:28:41;;;;;;;18.92;7.05;;;;;;;8.96;100.00;92008.94;2095703;28;20110;-81
2023/10/30 03:29:42;;;;;;;11.00;7.75;;;;;;;8.96;100.00;92002.88;2092815;28;20024;-80
2023/10/30 03:30:43;;;;;;;19.42;7.40;;;;;;;8.94;100.00;92005.97;2105770;28;20441;-81
2023/10/30 03:31:44;;;;;;;17.70;7.28;;;;;;;8.96;100.00;92008.22;2103663;28;20127;-81
2023/10/30 03:32:45;;;;;;;11.73;7.43;;;;;;;8.79;100.00;92003.03;2103766;28;20016;-81
2023/10/30 03:33:46;;;;;;;14.27;7.72;;;;;;;8.72;100.00;92000.59;2111830;28;20016;-81
2023/10/30 03:34:47;;;;;;;10.95;7.60;;;;;;;8.77;100.00;91994.72;2115642;28;20016;-80
2023/10/30 03:35:48;;;;;;;12.23;7.75;;;;;;;8.83;100.00;91992.25;2111752;28;20019;-81
2023/10/30 03:36:49;;;;;;;24.30;7.80;;;;;;;8.81;100.00;91999.94;2098840;28;20023;-81
2023/10/30 03:37:50;;;;;;;23.40;8.32;;;;;;;8.91;100.00;92001.50;2099248;28;20067;-81
2023/10/30 03:38:51;;;;;;;12.32;7.93;;;;;;;8.96;100.00;91994.88;2093927;28;20501;-81
2023/10/30 03:39:52;;;;;;;12.45;8.23;;;;;;;8.95;100.00;92002.09;2096959;28;20020;-81
2023/10/30 03:40:53;;;;;;;22.23;7.90;;;;;;;8.84;100.00;92001.75;2098428;28;20021;-81
2023/10/30 03:41:56;;;;;;;13.77;8.07;;;;;;;8.82;100.00;92007.50;2106911;28;20020;-80
2023/10/30 03:42:57;;;;;;;15.55;7.93;;;;;;;8.78;100.00;92006.88;2105036;28;20024;-81
2023/10/30 03:43:58;;;;;;;13.25;8.38;;;;;;;8.88;100.00;92005.03;2100527;28;20560;-81
2023/10/30 03:44:59;;;;;;;13.32;8.32;;;;;;;8.94;100.00;91999.88;2100813;28;20031;-81
2023/10/30 03:46:00;;;;;;;21.90;8.00;;;;;;;8.85;100.00;92008.53;2106768;28;20070;-82
2023/10/30 03:47:01;;;;;;;13.43;7.85;;;;;;;8.92;100.00;92003.00;2090010;28;20051;-81
2023/10/30 03:48:02;;;;;;;11.05;8.02;;;;;;;8.93;100.00;92001.06;2089096;28;20028;-82
2023/10/30 03:49:03;;;;;;;22.55;8.63;;;;;;;8.92;100.00;92010.25;2089167;28;20012;-81
2023/10/30 03:50:06;;;;;;;23.60;8.65;;;;;;;8.88;100.00;92005.03;2096929;28;20058;-81
2023/10/30 03:51:07;;;;;;;21.23;8.63;;;;;;;8.91;100.00;92006.06;2098046;28;20016;-81
2023/10/30 03:52:07;;;;;;;16.85;8.82;;;;;;;8.94;100.00;91994.56;2097593;28;20071;-81
2023/10/30 03:53:08;;;;;;;13.80;8.27;;;;;;;8.94;100.00;91989.22;2098001;28;20055;-81
2023/10/30 03:54:09;;;;;;;13.55;8.18;;;;;;;9.00;100.00;91998.16;2089234;28;20032;-81
2023/10/30 03:55:10;;;;;;;14.95;8.55;;;;;;;8.91;100.00;91988.19;2105925;28;20035;-82
2023/10/30 03:56:11;;;;;;;14.35;8.80;;;;;;;8.88;100.00;91993.63;2104663;28;20070;-81
2023/10/30 03:57:12;;;;;;;18.45;8.27;;;;;;;8.88;100.00;91985.63;2090346;28;20479;-81
2023/10/30 03:58:14;;;;;;;14.93;8.35;;;;;;;8.94;100.00;91989.97;2096865;28;20021;-80
2023/10/30 03:59:17;;;;;;;16.63;8.85;;;;;;;8.99;100.00;91983.34;2105484;28;20024;-81
2023/10/30 04:00:18;;;;;;;13.15;8.38;;;;;;;8.97;100.00;91983.78;2097902;28;20024;-82
2023/10/30 04:01:19;;;;;;;17.15;9.90;;;;;;;8.89;100.00;91976.47;2101333;28;20024;-82
2023/10/30 04:02:20;;;;;;;17.80;8.13;;;;;;;8.91;100.00;91977.53;2094051;28;20028;-80
2023/10/30 04:03:21;;;;;;;22.27;8.32;;;;;;;8.94;100.00;91965.25;2096176;28;20078;-81
2023/10/30 04:04:22;;;;;;;16.85;8.20;;;;;;;8.93;100.00;91972.50;2104048;28;20028;-81
2023/10/30 04:05:23;;;;;;;20.73;8.95;;;;;;;8.88;100.00;91973.06;2098333;28;20051;-82
2023/10/30 04:06:24;;;;;;;26.63;8.85;;;;;;;8.87;100.00;91965.47;2106594;28;20020;-82
2023/10/30 04:07:25;;;;;;;17.60;9.15;;;;;;;8.91;100.00;91968.75;2097768;28;20477;-81
2023/10/30 04:08:26;;;;;;;12.32;8.05;;;;;;;8.97;100.00;91969.72;2098387;28;20025;-82
2023/10/30 04:09:27;;;;;;;19.50;9.05;;;;;;;9.02;100.00;91980.56;2115243;27;20047;-81
2023/10/30 04:10:28;;;;;;;13.75;8.93;;;;;;;8.99;100.00;91972.69;2116283;27;20083;-81
2023/10/30 04:11:29;;;;;;;18.60;9.27;;;;;;;9.03;100.00;91981.28;2096272;28;20024;-81
2023/10/30 04:12:30;;;;;;;19.67;9.43;;;;;;;9.00;100.00;91977.59;2097524;28;20027;-81
2023/10/30 04:13:31;;;;;;;16.25;9.15;;;;;;;9.02;100.00;91977.16;2106431;28;20099;-81
2023/10/30 04:14:32;;;;;;;15.88;9.57;;;;;;;9.04;100.00;91982.78;2105081;28;20024;-82
2023/10/30 04:15:36;;;;;;;16.48;8.18;;;;;;;9.12;100.00;91972.63;2098325;28;20020;-81
2023/10/30 04:16:55;;;;;;;22.55;9.52;;;;;;;9.01;100.00;91979.06;2089856;28;20029;-81
2023/10/30 04:17:56;;;;;;;13.90;9.02;;;;;;;9.05;100.00;91977.03;2094916;28;20519;-80
2023/10/30 04:18:59;;;;;;;19.52;9.73;;;;;;;9.15;100.00;91974.44;2090182;28;20025;-80
2023/10/30 04:20:00;;;;;;;21.45;9.82;;;;;;;9.26;100.00;91972.13;2088148;28;20378;-81
2023/10/30 04:21:00;;;;;;;15.68;10.13;;;;;;;9.18;100.00;91973.56;2089884;28;20029;-80
2023/10/30 04:22:02;;;;;;;21.40;10.15;;;;;;;9.19;100.00;91980.38;2097449;28;20035;-81
2023/10/30 04:23:03;;;;;;;17.85;9.93;;;;;;;9.20;100.00;91989.88;2105276;28;20024;-81
2023/10/30 04:24:04;;;;;;;24.30;10.00;;;;;;;9.22;100.00;91982.16;2097097;28;20029;-80
2023/10/30 04:25:06;;;;;;;21.42;9.85;;;;;;;9.26;100.00;91991.56;2084305;28;20025;-80
2023/10/30 04:26:07;;;;;;;24.15;10.30;;;;;;;9.25;100.00;91991.97;2089867;28;20495;-81
2023/10/30 04:27:08;;;;;;;21.42;11.05;;;;;;;9.28;100.00;91991.84;2098015;28;20091;-81
2023/10/30 04:28:09;;;;;;;22.17;11.00;;;;;;;9.29;100.00;91997.91;2098277;28;20424;-80
2023/10/30 04:29:10;;;;;;;28.55;11.20;;;;;;;9.29;100.00;91981.94;2088156;28;20029;-81
2023/10/30 04:30:12;;;;;;;24.67;11.20;;;;;;;9.32;100.00;91979.13;2097409;28;20024;-80
2023/10/30 04:31:13;;;;;;;24.20;11.43;;;;;;;9.32;100.00;91973.06;2096936;28;20023;-80
2023/10/30 04:32:13;;;;;;;18.45;10.70;;;;;;;9.26;100.00;91974.78;2096031;28;20021;-81
2023/10/30 04:33:14;;;;;;;19.08;11.32;;;;;;;9.26;100.00;91972.13;2096137;28;20013;-80
2023/10/30 04:34:16;;;;;;;22.88;10.77;;;;;;;9.21;100.00;91978.00;2098098;28;20021;-81
2023/10/30 04:35:17;;;;;;;21.02;11.10;;;;;;;9.20;100.00;91979.19;2106665;28;20020;-80
2023/10/30 04:36:19;;;;;;;21.45;11.02;;;;;;;9.29;100.00;91982.66;2103942;28;20024;-79
2023/10/30 04:37:21;;;;;;;17.35;11.55;;;;;;;9.25;100.00;91970.63;2094290;28;20059;-81
2023/10/30 04:38:23;;;;;;;18.35;10.90;;;;;;;9.23;100.00;91986.34;2106027;28;20051;-81
2023/10/30 04:39:24;;;;;;;21.73;11.13;;;;;;;9.13;100.00;91979.44;2097963;28;20027;-80
2023/10/30 04:40:24;;;;;;;20.35;10.98;;;;;;;9.19;100.00;91981.13;2086532;28;20497;-82
2023/10/30 04:41:25;;;;;;;15.93;10.35;;;;;;;9.19;100.00;91978.47;2105474;28;20047;-81
2023/10/30 04:42:27;;;;;;;18.08;11.55;;;;;;;9.16;100.00;91974.00;2106149;28;20027;-81
2023/10/30 04:43:28;;;;;;;16.65;10.48;;;;;;;9.18;100.00;91976.97;2096283;28;20019;-81
2023/10/30 04:44:29;;;;;;;18.88;11.02;;;;;;;9.17;100.00;91980.81;2105994;28;20051;-81
2023/10/30 04:45:30;;;;;;;22.50;11.48;;;;;;;9.19;100.00;91975.78;2097982;28;20029;-82
2023/10/30 04:46:31;;;;;;;16.48;10.18;;;;;;;9.19;100.00;91975.78;2105688;28;20024;-81
2023/10/30 04:47:33;;;;;;;18.83;10.55;;;;;;;9.13;100.00;91971.44;2114009;28;20053;-82
2023/10/30 04:48:34;;;;;;;17.80;10.60;;;;;;;9.06;100.00;91965.19;2109513;28;20405;-82
2023/10/30 04:49:35;;;;;;;21.20;10.93;;;;;;;9.15;100.00;91963.75;2098164;28;20047;-82
2023/10/30 04:50:36;;;;;;;25.45;10.50;;;;;;;9.19;100.00;91969.72;2112806;28;20027;-81
2023/10/30 04:51:38;;;;;;;24.67;11.40;;;;;;;9.36;100.00;91972.94;2109254;28;20046;-81